sensor_id;sensor_type;location;lat;lon;timestamp;temperature;humidity
48515;DHT22;34309;47.260;2.796;2023-02-12T00:00:06;22.10;14.70
48515;DHT22;34309;47.260;2.796;2023-02-12T00:02:39;22.10;14.50
48515;DHT22;34309;47.260;2.796;2023-02-12T00:05:13;22.10;14.30
48515;DHT22;34309;47.260;2.796;2023-02-12T00:07:47;22.20;14.40
48515;DHT22;34309;47.260;2.796;2023-02-12T00:10:22;22.20;14.40
48515;DHT22;34309;47.260;2.796;2023-02-12T00:12:57;22.30;14.40
48515;DHT22;34309;47.260;2.796;2023-02-12T00:15:31;22.30;14.70
48515;DHT22;34309;47.260;2.796;2023-02-12T00:18:05;22.30;14.50
48515;DHT22;34309;47.260;2.796;2023-02-12T00:20:38;22.30;14.20
48515;DHT22;34309;47.260;2.796;2023-02-12T00:23:12;22.30;14.70
48515;DHT22;34309;47.260;2.796;2023-02-12T00:25:47;22.30;14.30
48515;DHT22;34309;47.260;2.796;2023-02-12T00:28:23;22.30;14.00
48515;DHT22;34309;47.260;2.796;2023-02-12T00:30:57;22.30;14.10
48515;DHT22;34309;47.260;2.796;2023-02-12T00:33:31;22.30;14.10
48515;DHT22;34309;47.260;2.796;2023-02-12T00:36:05;22.30;14.10
48515;DHT22;34309;47.260;2.796;2023-02-12T00:38:40;22.20;14.10
48515;DHT22;34309;47.260;2.796;2023-02-12T00:41:14;22.20;14.20
48515;DHT22;34309;47.260;2.796;2023-02-12T00:43:50;22.20;14.10
48515;DHT22;34309;47.260;2.796;2023-02-12T00:46:23;22.10;14.10
48515;DHT22;34309;47.260;2.796;2023-02-12T00:48:57;22.10;13.90
48515;DHT22;34309;47.260;2.796;2023-02-12T00:51:30;22.10;14.20
48515;DHT22;34309;47.260;2.796;2023-02-12T00:54:04;22.00;14.20
48515;DHT22;34309;47.260;2.796;2023-02-12T00:56:38;22.00;14.20
48515;DHT22;34309;47.260;2.796;2023-02-12T00:59:13;21.90;14.30
48515;DHT22;34309;47.260;2.796;2023-02-12T01:01:47;21.90;14.40
48515;DHT22;34309;47.260;2.796;2023-02-12T01:04:21;21.80;14.30
48515;DHT22;34309;47.260;2.796;2023-02-12T01:06:54;21.80;14.40
48515;DHT22;34309;47.260;2.796;2023-02-12T01:09:28;21.80;14.60
48515;DHT22;34309;47.260;2.796;2023-02-12T01:11:57;21.80;14.50
48515;DHT22;34309;47.260;2.796;2023-02-12T01:14:32;21.80;14.40
48515;DHT22;34309;47.260;2.796;2023-02-12T01:17:07;21.80;14.50
48515;DHT22;34309;47.260;2.796;2023-02-12T01:19:41;21.90;14.50
48515;DHT22;34309;47.260;2.796;2023-02-12T01:22:15;21.90;14.40
48515;DHT22;34309;47.260;2.796;2023-02-12T01:24:49;21.90;14.50
48515;DHT22;34309;47.260;2.796;2023-02-12T01:27:23;21.90;14.40
48515;DHT22;34309;47.260;2.796;2023-02-12T01:29:58;22.00;14.40
48515;DHT22;34309;47.260;2.796;2023-02-12T01:32:31;22.00;14.40
48515;DHT22;34309;47.260;2.796;2023-02-12T01:35:07;22.00;14.40
48515;DHT22;34309;47.260;2.796;2023-02-12T01:37:42;22.10;14.30
48515;DHT22;34309;47.260;2.796;2023-02-12T01:40:17;22.10;14.30
48515;DHT22;34309;47.260;2.796;2023-02-12T01:42:50;22.10;14.30
48515;DHT22;34309;47.260;2.796;2023-02-12T01:45:50;22.10;14.30
48515;DHT22;34309;47.260;2.796;2023-02-12T01:48:30;22.10;14.20
48515;DHT22;34309;47.260;2.796;2023-02-12T01:51:06;22.20;14.10
48515;DHT22;34309;47.260;2.796;2023-02-12T01:53:45;22.20;14.20
48515;DHT22;34309;47.260;2.796;2023-02-12T01:56:20;22.20;14.10
48515;DHT22;34309;47.260;2.796;2023-02-12T01:58:55;22.30;14.10
48515;DHT22;34309;47.260;2.796;2023-02-12T02:01:31;22.30;14.20
48515;DHT22;34309;47.260;2.796;2023-02-12T02:04:08;22.30;14.20
48515;DHT22;34309;47.260;2.796;2023-02-12T02:06:46;22.20;14.00
48515;DHT22;34309;47.260;2.796;2023-02-12T02:09:22;22.20;14.00
48515;DHT22;34309;47.260;2.796;2023-02-12T02:11:56;22.20;14.10
48515;DHT22;34309;47.260;2.796;2023-02-12T02:14:48;22.20;14.10
48515;DHT22;34309;47.260;2.796;2023-02-12T02:17:34;22.10;14.20
48515;DHT22;34309;47.260;2.796;2023-02-12T02:20:42;22.10;14.20
48515;DHT22;34309;47.260;2.796;2023-02-12T02:23:39;22.00;14.30
48515;DHT22;34309;47.260;2.796;2023-02-12T02:26:43;22.00;14.30
48515;DHT22;34309;47.260;2.796;2023-02-12T02:29:37;21.90;14.40
48515;DHT22;34309;47.260;2.796;2023-02-12T02:32:18;21.90;14.40
48515;DHT22;34309;47.260;2.796;2023-02-12T02:34:56;21.80;14.90
48515;DHT22;34309;47.260;2.796;2023-02-12T02:37:38;21.80;14.30
48515;DHT22;34309;47.260;2.796;2023-02-12T02:40:15;21.70;14.50
48515;DHT22;34309;47.260;2.796;2023-02-12T02:42:53;21.70;14.50
48515;DHT22;34309;47.260;2.796;2023-02-12T02:45:30;21.70;14.80
48515;DHT22;34309;47.260;2.796;2023-02-12T02:48:11;21.70;14.40
48515;DHT22;34309;47.260;2.796;2023-02-12T02:50:48;21.60;14.50
48515;DHT22;34309;47.260;2.796;2023-02-12T02:53:28;21.70;14.30
48515;DHT22;34309;47.260;2.796;2023-02-12T02:56:06;21.70;14.30
48515;DHT22;34309;47.260;2.796;2023-02-12T02:58:42;21.70;14.30
48515;DHT22;34309;47.260;2.796;2023-02-12T03:01:19;21.80;14.20
48515;DHT22;34309;47.260;2.796;2023-02-12T03:04:01;21.80;14.20
48515;DHT22;34309;47.260;2.796;2023-02-12T03:06:39;21.90;14.30
48515;DHT22;34309;47.260;2.796;2023-02-12T03:09:20;21.90;14.20
48515;DHT22;34309;47.260;2.796;2023-02-12T03:12:00;21.90;14.20
48515;DHT22;34309;47.260;2.796;2023-02-12T03:14:38;22.00;14.20
48515;DHT22;34309;47.260;2.796;2023-02-12T03:17:17;22.00;14.20
48515;DHT22;34309;47.260;2.796;2023-02-12T03:19:57;22.00;14.10
48515;DHT22;34309;47.260;2.796;2023-02-12T03:22:33;22.10;14.10
48515;DHT22;34309;47.260;2.796;2023-02-12T03:25:11;22.10;14.10
48515;DHT22;34309;47.260;2.796;2023-02-12T03:27:51;22.10;14.00
48515;DHT22;34309;47.260;2.796;2023-02-12T03:30:34;22.10;14.10
48515;DHT22;34309;47.260;2.796;2023-02-12T03:33:17;22.20;13.90
48515;DHT22;34309;47.260;2.796;2023-02-12T03:35:58;22.10;14.00
48515;DHT22;34309;47.260;2.796;2023-02-12T03:38:37;22.20;14.00
48515;DHT22;34309;47.260;2.796;2023-02-12T03:41:17;22.10;13.90
48515;DHT22;34309;47.260;2.796;2023-02-12T03:43:55;22.10;13.80
48515;DHT22;34309;47.260;2.796;2023-02-12T03:46:36;22.10;13.90
48515;DHT22;34309;47.260;2.796;2023-02-12T03:49:19;22.00;13.90
48515;DHT22;34309;47.260;2.796;2023-02-12T03:51:55;22.00;14.00
48515;DHT22;34309;47.260;2.796;2023-02-12T03:54:29;22.00;13.90
48515;DHT22;34309;47.260;2.796;2023-02-12T03:57:05;21.90;13.90
48515;DHT22;34309;47.260;2.796;2023-02-12T03:59:40;21.90;14.10
48515;DHT22;34309;47.260;2.796;2023-02-12T04:02:18;21.90;14.10
48515;DHT22;34309;47.260;2.796;2023-02-12T04:04:51;21.80;14.00
48515;DHT22;34309;47.260;2.796;2023-02-12T04:07:27;21.80;14.10
48515;DHT22;34309;47.260;2.796;2023-02-12T04:09:55;21.80;14.20
48515;DHT22;34309;47.260;2.796;2023-02-12T04:12:39;21.70;14.20
48515;DHT22;34309;47.260;2.796;2023-02-12T04:15:38;21.70;14.20
48515;DHT22;34309;47.260;2.796;2023-02-12T04:18:19;21.70;14.40
48515;DHT22;34309;47.260;2.796;2023-02-12T04:21:03;21.80;14.20
48515;DHT22;34309;47.260;2.796;2023-02-12T04:23:49;21.80;14.10
48515;DHT22;34309;47.260;2.796;2023-02-12T04:26:31;21.80;14.20
48515;DHT22;34309;47.260;2.796;2023-02-12T04:29:10;21.80;14.40
48515;DHT22;34309;47.260;2.796;2023-02-12T04:31:49;21.90;15.00
48515;DHT22;34309;47.260;2.796;2023-02-12T04:34:31;21.90;14.30
48515;DHT22;34309;47.260;2.796;2023-02-12T04:37:11;21.90;14.20
48515;DHT22;34309;47.260;2.796;2023-02-12T04:39:58;22.00;14.10
48515;DHT22;34309;47.260;2.796;2023-02-12T04:42:40;22.00;14.00
48515;DHT22;34309;47.260;2.796;2023-02-12T04:45:18;22.00;14.00
48515;DHT22;34309;47.260;2.796;2023-02-12T04:47:53;22.10;14.10
48515;DHT22;34309;47.260;2.796;2023-02-12T04:50:36;22.10;14.00
48515;DHT22;34309;47.260;2.796;2023-02-12T04:53:11;22.10;14.20
48515;DHT22;34309;47.260;2.796;2023-02-12T04:55:48;22.10;13.90
48515;DHT22;34309;47.260;2.796;2023-02-12T04:58:22;22.00;14.00
48515;DHT22;34309;47.260;2.796;2023-02-12T05:00:58;22.10;13.80
48515;DHT22;34309;47.260;2.796;2023-02-12T05:03:31;22.00;13.80
48515;DHT22;34309;47.260;2.796;2023-02-12T05:06:06;22.00;13.80
48515;DHT22;34309;47.260;2.796;2023-02-12T05:08:41;22.00;13.90
48515;DHT22;34309;47.260;2.796;2023-02-12T05:11:16;21.90;13.90
48515;DHT22;34309;47.260;2.796;2023-02-12T05:13:50;21.90;13.90
48515;DHT22;34309;47.260;2.796;2023-02-12T05:16:23;21.90;14.10
48515;DHT22;34309;47.260;2.796;2023-02-12T05:18:57;21.80;14.00
48515;DHT22;34309;47.260;2.796;2023-02-12T05:21:32;21.80;14.00
48515;DHT22;34309;47.260;2.796;2023-02-12T05:24:06;21.80;14.20
48515;DHT22;34309;47.260;2.796;2023-02-12T05:26:41;21.70;14.20
48515;DHT22;34309;47.260;2.796;2023-02-12T05:29:15;21.80;14.20
48515;DHT22;34309;47.260;2.796;2023-02-12T05:31:49;21.80;14.10
48515;DHT22;34309;47.260;2.796;2023-02-12T05:34:22;21.80;14.20
48515;DHT22;34309;47.260;2.796;2023-02-12T05:36:56;21.80;14.10
48515;DHT22;34309;47.260;2.796;2023-02-12T05:39:30;21.80;14.10
48515;DHT22;34309;47.260;2.796;2023-02-12T05:42:05;21.90;14.00
48515;DHT22;34309;47.260;2.796;2023-02-12T05:44:34;21.90;14.00
48515;DHT22;34309;47.260;2.796;2023-02-12T05:47:07;21.90;14.00
48515;DHT22;34309;47.260;2.796;2023-02-12T05:49:41;21.90;14.00
48515;DHT22;34309;47.260;2.796;2023-02-12T05:52:15;22.00;14.00
48515;DHT22;34309;47.260;2.796;2023-02-12T05:54:49;22.00;14.10
48515;DHT22;34309;47.260;2.796;2023-02-12T05:57:24;22.00;13.90
48515;DHT22;34309;47.260;2.796;2023-02-12T05:59:58;22.00;13.90
48515;DHT22;34309;47.260;2.796;2023-02-12T06:02:32;22.10;13.90
48515;DHT22;34309;47.260;2.796;2023-02-12T06:05:07;22.10;13.80
48515;DHT22;34309;47.260;2.796;2023-02-12T06:07:41;22.10;13.70
48515;DHT22;34309;47.260;2.796;2023-02-12T06:10:14;22.10;13.70
48515;DHT22;34309;47.260;2.796;2023-02-12T06:12:55;22.10;14.00
48515;DHT22;34309;47.260;2.796;2023-02-12T06:15:29;22.10;13.90
48515;DHT22;34309;47.260;2.796;2023-02-12T06:18:02;22.10;14.10
48515;DHT22;34309;47.260;2.796;2023-02-12T06:20:37;22.00;13.90
48515;DHT22;34309;47.260;2.796;2023-02-12T06:23:11;21.90;13.70
48515;DHT22;34309;47.260;2.796;2023-02-12T06:25:46;21.90;13.90
48515;DHT22;34309;47.260;2.796;2023-02-12T06:28:21;21.90;13.90
48515;DHT22;34309;47.260;2.796;2023-02-12T06:30:55;21.90;13.90
48515;DHT22;34309;47.260;2.796;2023-02-12T06:33:29;21.80;14.00
48515;DHT22;34309;47.260;2.796;2023-02-12T06:36:03;21.80;14.00
48515;DHT22;34309;47.260;2.796;2023-02-12T06:38:37;21.70;14.00
48515;DHT22;34309;47.260;2.796;2023-02-12T06:41:11;21.60;14.00
48515;DHT22;34309;47.260;2.796;2023-02-12T06:43:46;21.60;14.10
48515;DHT22;34309;47.260;2.796;2023-02-12T06:46:20;21.50;14.10
48515;DHT22;34309;47.260;2.796;2023-02-12T06:48:55;21.50;14.60
48515;DHT22;34309;47.260;2.796;2023-02-12T06:51:25;21.60;14.40
48515;DHT22;34309;47.260;2.796;2023-02-12T06:53:59;21.60;14.40
48515;DHT22;34309;47.260;2.796;2023-02-12T06:56:33;21.60;14.40
48515;DHT22;34309;47.260;2.796;2023-02-12T06:59:12;21.60;14.30
48515;DHT22;34309;47.260;2.796;2023-02-12T07:01:46;21.70;14.30
48515;DHT22;34309;47.260;2.796;2023-02-12T07:04:19;21.70;14.70
48515;DHT22;34309;47.260;2.796;2023-02-12T07:06:53;21.70;14.30
48515;DHT22;34309;47.260;2.796;2023-02-12T07:09:27;21.70;14.40
48515;DHT22;34309;47.260;2.796;2023-02-12T07:12:01;21.80;14.30
48515;DHT22;34309;47.260;2.796;2023-02-12T07:14:36;21.80;14.30
48515;DHT22;34309;47.260;2.796;2023-02-12T07:17:09;21.80;14.20
48515;DHT22;34309;47.260;2.796;2023-02-12T07:19:43;21.90;14.30
48515;DHT22;34309;47.260;2.796;2023-02-12T07:22:17;21.90;14.20
48515;DHT22;34309;47.260;2.796;2023-02-12T07:24:51;21.90;14.10
48515;DHT22;34309;47.260;2.796;2023-02-12T07:27:25;21.90;14.10
48515;DHT22;34309;47.260;2.796;2023-02-12T07:30:00;21.90;14.70
48515;DHT22;34309;47.260;2.796;2023-02-12T07:32:34;21.90;13.90
48515;DHT22;34309;47.260;2.796;2023-02-12T07:35:07;21.90;14.00
48515;DHT22;34309;47.260;2.796;2023-02-12T07:37:41;21.90;14.00
48515;DHT22;34309;47.260;2.796;2023-02-12T07:40:15;21.90;14.00
48515;DHT22;34309;47.260;2.796;2023-02-12T07:42:49;21.90;14.00
48515;DHT22;34309;47.260;2.796;2023-02-12T07:45:28;21.90;14.20
48515;DHT22;34309;47.260;2.796;2023-02-12T07:48:02;21.80;14.10
48515;DHT22;34309;47.260;2.796;2023-02-12T07:50:35;21.80;14.00
48515;DHT22;34309;47.260;2.796;2023-02-12T07:53:09;21.80;14.10
48515;DHT22;34309;47.260;2.796;2023-02-12T07:55:43;21.70;14.10
48515;DHT22;34309;47.260;2.796;2023-02-12T07:58:16;21.70;14.20
48515;DHT22;34309;47.260;2.796;2023-02-12T08:00:51;21.60;14.20
48515;DHT22;34309;47.260;2.796;2023-02-12T08:03:27;21.60;14.20
48515;DHT22;34309;47.260;2.796;2023-02-12T08:06:06;21.50;14.40
48515;DHT22;34309;47.260;2.796;2023-02-12T08:08:40;21.50;14.40
48515;DHT22;34309;47.260;2.796;2023-02-12T08:11:14;21.50;14.30
48515;DHT22;34309;47.260;2.796;2023-02-12T08:13:49;21.50;14.50
48515;DHT22;34309;47.260;2.796;2023-02-12T08:16:26;21.50;14.40
48515;DHT22;34309;47.260;2.796;2023-02-12T08:19:00;21.60;14.40
48515;DHT22;34309;47.260;2.796;2023-02-12T08:21:35;21.60;14.40
48515;DHT22;34309;47.260;2.796;2023-02-12T08:24:09;21.60;14.20
48515;DHT22;34309;47.260;2.796;2023-02-12T08:26:43;21.60;14.30
48515;DHT22;34309;47.260;2.796;2023-02-12T08:29:18;21.70;14.30
48515;DHT22;34309;47.260;2.796;2023-02-12T08:31:57;21.70;14.20
48515;DHT22;34309;47.260;2.796;2023-02-12T08:34:32;21.80;14.30
48515;DHT22;34309;47.260;2.796;2023-02-12T08:37:06;21.80;14.10
48515;DHT22;34309;47.260;2.796;2023-02-12T08:39:39;21.90;14.10
48515;DHT22;34309;47.260;2.796;2023-02-12T08:42:13;21.90;14.10
48515;DHT22;34309;47.260;2.796;2023-02-12T08:44:47;22.20;13.90
48515;DHT22;34309;47.260;2.796;2023-02-12T08:47:22;22.30;13.70
48515;DHT22;34309;47.260;2.796;2023-02-12T08:49:55;22.40;13.50
48515;DHT22;34309;47.260;2.796;2023-02-12T08:52:29;22.40;13.50
48515;DHT22;34309;47.260;2.796;2023-02-12T08:55:03;22.50;13.50
48515;DHT22;34309;47.260;2.796;2023-02-12T08:57:37;22.50;13.50
48515;DHT22;34309;47.260;2.796;2023-02-12T09:00:11;22.40;13.50
48515;DHT22;34309;47.260;2.796;2023-02-12T09:02:47;22.40;14.20
48515;DHT22;34309;47.260;2.796;2023-02-12T09:05:21;22.40;13.60
48515;DHT22;34309;47.260;2.796;2023-02-12T09:07:54;22.30;13.60
48515;DHT22;34309;47.260;2.796;2023-02-12T09:10:28;22.30;13.70
48515;DHT22;34309;47.260;2.796;2023-02-12T09:13:02;22.30;13.60
48515;DHT22;34309;47.260;2.796;2023-02-12T09:15:30;22.30;13.70
48515;DHT22;34309;47.260;2.796;2023-02-12T09:18:06;22.30;13.60
48515;DHT22;34309;47.260;2.796;2023-02-12T09:20:37;22.20;13.70
48515;DHT22;34309;47.260;2.796;2023-02-12T09:23:12;22.20;13.90
48515;DHT22;34309;47.260;2.796;2023-02-12T09:25:47;22.10;13.80
48515;DHT22;34309;47.260;2.796;2023-02-12T09:28:21;22.10;13.90
48515;DHT22;34309;47.260;2.796;2023-02-12T09:30:55;22.00;13.70
48515;DHT22;34309;47.260;2.796;2023-02-12T09:33:30;22.00;13.90
48515;DHT22;34309;47.260;2.796;2023-02-12T09:36:06;21.90;13.80
48515;DHT22;34309;47.260;2.796;2023-02-12T09:38:40;21.90;13.90
48515;DHT22;34309;47.260;2.796;2023-02-12T09:41:36;21.80;14.00
48515;DHT22;34309;47.260;2.796;2023-02-12T09:44:19;21.70;14.00
48515;DHT22;34309;47.260;2.796;2023-02-12T09:46:58;21.70;14.00
48515;DHT22;34309;47.260;2.796;2023-02-12T09:49:49;21.60;14.10
48515;DHT22;34309;47.260;2.796;2023-02-12T09:52:27;21.60;14.30
48515;DHT22;34309;47.260;2.796;2023-02-12T09:55:02;21.50;14.20
48515;DHT22;34309;47.260;2.796;2023-02-12T09:57:36;21.50;14.30
48515;DHT22;34309;47.260;2.796;2023-02-12T10:00:14;21.50;14.50
48515;DHT22;34309;47.260;2.796;2023-02-12T10:02:52;21.50;14.50
48515;DHT22;34309;47.260;2.796;2023-02-12T10:05:30;21.50;14.60
48515;DHT22;34309;47.260;2.796;2023-02-12T10:08:19;21.60;14.60
48515;DHT22;34309;47.260;2.796;2023-02-12T10:11:04;21.60;14.40
48515;DHT22;34309;47.260;2.796;2023-02-12T10:13:46;21.60;14.50
48515;DHT22;34309;47.260;2.796;2023-02-12T10:16:36;21.70;14.30
48515;DHT22;34309;47.260;2.796;2023-02-12T10:19:25;21.70;14.40
48515;DHT22;34309;47.260;2.796;2023-02-12T10:22:07;21.70;14.40
48515;DHT22;34309;47.260;2.796;2023-02-12T10:25:01;21.80;14.40
48515;DHT22;34309;47.260;2.796;2023-02-12T10:27:38;21.80;14.30
48515;DHT22;34309;47.260;2.796;2023-02-12T10:30:20;21.90;14.30
48515;DHT22;34309;47.260;2.796;2023-02-12T10:32:59;21.90;14.40
48515;DHT22;34309;47.260;2.796;2023-02-12T10:35:34;21.90;14.70
48515;DHT22;34309;47.260;2.796;2023-02-12T10:38:15;21.90;14.40
48515;DHT22;34309;47.260;2.796;2023-02-12T10:40:49;21.90;14.30
48515;DHT22;34309;47.260;2.796;2023-02-12T10:43:26;21.90;14.30
48515;DHT22;34309;47.260;2.796;2023-02-12T10:46:00;21.90;14.40
48515;DHT22;34309;47.260;2.796;2023-02-12T10:48:32;21.90;14.30
48515;DHT22;34309;47.260;2.796;2023-02-12T10:51:29;21.90;14.50
48515;DHT22;34309;47.260;2.796;2023-02-12T10:54:34;21.90;14.50
48515;DHT22;34309;47.260;2.796;2023-02-12T10:57:18;21.90;14.40
48515;DHT22;34309;47.260;2.796;2023-02-12T10:59:54;21.90;14.50
48515;DHT22;34309;47.260;2.796;2023-02-12T11:02:30;21.80;14.50
48515;DHT22;34309;47.260;2.796;2023-02-12T11:05:22;21.80;14.40
48515;DHT22;34309;47.260;2.796;2023-02-12T11:07:57;21.70;14.60
48515;DHT22;34309;47.260;2.796;2023-02-12T11:10:37;21.70;14.60
48515;DHT22;34309;47.260;2.796;2023-02-12T11:13:22;21.60;14.80
48515;DHT22;34309;47.260;2.796;2023-02-12T11:15:57;21.60;14.80
48515;DHT22;34309;47.260;2.796;2023-02-12T11:18:33;21.50;14.70
48515;DHT22;34309;47.260;2.796;2023-02-12T11:21:09;21.50;14.70
48515;DHT22;34309;47.260;2.796;2023-02-12T11:23:43;21.50;14.70
48515;DHT22;34309;47.260;2.796;2023-02-12T11:26:27;21.40;14.70
48515;DHT22;34309;47.260;2.796;2023-02-12T11:29:02;21.40;14.70
48515;DHT22;34309;47.260;2.796;2023-02-12T11:31:38;21.30;14.70
48515;DHT22;34309;47.260;2.796;2023-02-12T11:34:14;21.30;14.70
48515;DHT22;34309;47.260;2.796;2023-02-12T11:36:51;21.30;15.00
48515;DHT22;34309;47.260;2.796;2023-02-12T11:39:27;21.20;14.90
48515;DHT22;34309;47.260;2.796;2023-02-12T11:42:06;21.20;15.10
48515;DHT22;34309;47.260;2.796;2023-02-12T11:44:50;21.10;15.40
48515;DHT22;34309;47.260;2.796;2023-02-12T11:47:27;21.10;15.40
48515;DHT22;34309;47.260;2.796;2023-02-12T11:50:06;21.00;15.50
48515;DHT22;34309;47.260;2.796;2023-02-12T11:52:41;21.00;15.50
48515;DHT22;34309;47.260;2.796;2023-02-12T11:55:21;21.10;15.60
48515;DHT22;34309;47.260;2.796;2023-02-12T11:58:01;21.10;15.50
48515;DHT22;34309;47.260;2.796;2023-02-12T12:00:47;21.20;15.60
48515;DHT22;34309;47.260;2.796;2023-02-12T12:03:26;21.20;15.80
48515;DHT22;34309;47.260;2.796;2023-02-12T12:06:05;21.20;15.60
48515;DHT22;34309;47.260;2.796;2023-02-12T12:08:42;21.30;15.60
48515;DHT22;34309;47.260;2.796;2023-02-12T12:11:20;21.30;15.50
48515;DHT22;34309;47.260;2.796;2023-02-12T12:13:58;21.40;15.60
48515;DHT22;34309;47.260;2.796;2023-02-12T12:16:40;21.40;15.40
48515;DHT22;34309;47.260;2.796;2023-02-12T12:19:37;21.40;15.60
48515;DHT22;34309;47.260;2.796;2023-02-12T12:22:39;21.40;15.50
48515;DHT22;34309;47.260;2.796;2023-02-12T12:25:21;21.50;15.60
48515;DHT22;34309;47.260;2.796;2023-02-12T12:28:01;21.50;15.50
48515;DHT22;34309;47.260;2.796;2023-02-12T12:30:52;21.50;15.70
48515;DHT22;34309;47.260;2.796;2023-02-12T12:33:34;21.50;15.60
48515;DHT22;34309;47.260;2.796;2023-02-12T12:39:26;21.40;15.60
48515;DHT22;34309;47.260;2.796;2023-02-12T12:45:34;21.40;15.60
48515;DHT22;34309;47.260;2.796;2023-02-12T12:48:22;21.40;15.80
48515;DHT22;34309;47.260;2.796;2023-02-12T12:51:11;21.30;15.60
48515;DHT22;34309;47.260;2.796;2023-02-12T12:53:59;21.30;15.70
48515;DHT22;34309;47.260;2.796;2023-02-12T12:56:47;21.30;15.80
48515;DHT22;34309;47.260;2.796;2023-02-12T12:59:49;21.30;15.90
48515;DHT22;34309;47.260;2.796;2023-02-12T13:03:00;21.20;16.30
48515;DHT22;34309;47.260;2.796;2023-02-12T13:08:57;21.20;15.90
48515;DHT22;34309;47.260;2.796;2023-02-12T13:11:43;21.20;16.00
48515;DHT22;34309;47.260;2.796;2023-02-12T13:14:28;21.10;16.00
48515;DHT22;34309;47.260;2.796;2023-02-12T13:17:08;21.10;16.00
48515;DHT22;34309;47.260;2.796;2023-02-12T13:19:52;21.00;16.00
48515;DHT22;34309;47.260;2.796;2023-02-12T13:22:33;21.00;16.00
48515;DHT22;34309;47.260;2.796;2023-02-12T13:25:20;21.00;16.10
48515;DHT22;34309;47.260;2.796;2023-02-12T13:27:55;21.00;16.20
48515;DHT22;34309;47.260;2.796;2023-02-12T13:30:32;20.90;16.30
48515;DHT22;34309;47.260;2.796;2023-02-12T13:33:11;20.90;16.30
48515;DHT22;34309;47.260;2.796;2023-02-12T13:35:51;20.90;16.30
48515;DHT22;34309;47.260;2.796;2023-02-12T13:38:30;20.80;16.10
48515;DHT22;34309;47.260;2.796;2023-02-12T13:41:08;20.80;16.50
48515;DHT22;34309;47.260;2.796;2023-02-12T13:43:56;20.80;16.20
48515;DHT22;34309;47.260;2.796;2023-02-12T13:46:39;20.80;16.30
48515;DHT22;34309;47.260;2.796;2023-02-12T13:49:24;20.70;16.20
48515;DHT22;34309;47.260;2.796;2023-02-12T13:52:02;20.70;16.30
48515;DHT22;34309;47.260;2.796;2023-02-12T13:54:50;20.70;16.40
48515;DHT22;34309;47.260;2.796;2023-02-12T13:57:27;20.70;16.50
48515;DHT22;34309;47.260;2.796;2023-02-12T14:00:00;20.70;16.50
48515;DHT22;34309;47.260;2.796;2023-02-12T14:02:43;20.60;16.50
48515;DHT22;34309;47.260;2.796;2023-02-12T14:05:22;20.60;16.50
48515;DHT22;34309;47.260;2.796;2023-02-12T14:07:59;20.60;16.50
48515;DHT22;34309;47.260;2.796;2023-02-12T14:10:38;20.60;16.70
48515;DHT22;34309;47.260;2.796;2023-02-12T14:13:16;20.60;16.70
48515;DHT22;34309;47.260;2.796;2023-02-12T14:15:53;20.60;16.80
48515;DHT22;34309;47.260;2.796;2023-02-12T14:18:30;20.60;17.00
48515;DHT22;34309;47.260;2.796;2023-02-12T14:21:37;20.60;17.30
48515;DHT22;34309;47.260;2.796;2023-02-12T14:27:29;20.60;17.60
48515;DHT22;34309;47.260;2.796;2023-02-12T14:30:29;20.60;17.80
48515;DHT22;34309;47.260;2.796;2023-02-12T14:33:25;20.60;18.00
48515;DHT22;34309;47.260;2.796;2023-02-12T14:36:16;20.60;18.20
48515;DHT22;34309;47.260;2.796;2023-02-12T14:38:58;20.60;18.30
48515;DHT22;34309;47.260;2.796;2023-02-12T14:41:35;20.60;18.60
48515;DHT22;34309;47.260;2.796;2023-02-12T14:44:46;20.60;18.60
48515;DHT22;34309;47.260;2.796;2023-02-12T14:47:50;20.60;18.70
48515;DHT22;34309;47.260;2.796;2023-02-12T14:50:36;20.70;18.80
48515;DHT22;34309;47.260;2.796;2023-02-12T14:53:25;20.60;18.90
48515;DHT22;34309;47.260;2.796;2023-02-12T14:56:02;20.60;19.00
48515;DHT22;34309;47.260;2.796;2023-02-12T14:58:36;20.70;19.20
48515;DHT22;34309;47.260;2.796;2023-02-12T15:01:12;20.60;19.10
48515;DHT22;34309;47.260;2.796;2023-02-12T15:03:49;20.60;19.20
48515;DHT22;34309;47.260;2.796;2023-02-12T15:06:32;20.60;19.20
48515;DHT22;34309;47.260;2.796;2023-02-12T15:09:10;20.60;19.30
48515;DHT22;34309;47.260;2.796;2023-02-12T15:11:47;20.60;19.30
48515;DHT22;34309;47.260;2.796;2023-02-12T15:14:25;20.60;19.30
48515;DHT22;34309;47.260;2.796;2023-02-12T15:17:07;20.60;19.40
48515;DHT22;34309;47.260;2.796;2023-02-12T15:19:45;20.60;19.40
48515;DHT22;34309;47.260;2.796;2023-02-12T15:22:23;20.60;19.40
48515;DHT22;34309;47.260;2.796;2023-02-12T15:25:14;20.60;19.50
48515;DHT22;34309;47.260;2.796;2023-02-12T15:27:49;20.60;19.30
48515;DHT22;34309;47.260;2.796;2023-02-12T15:30:24;20.60;19.50
48515;DHT22;34309;47.260;2.796;2023-02-12T15:33:03;20.70;19.50
48515;DHT22;34309;47.260;2.796;2023-02-12T15:35:39;20.60;19.40
48515;DHT22;34309;47.260;2.796;2023-02-12T15:38:20;20.60;19.40
48515;DHT22;34309;47.260;2.796;2023-02-12T15:40:56;20.60;19.20
48515;DHT22;34309;47.260;2.796;2023-02-12T15:43:32;20.60;19.10
48515;DHT22;34309;47.260;2.796;2023-02-12T15:46:15;20.60;19.00
48515;DHT22;34309;47.260;2.796;2023-02-12T15:48:50;20.60;18.90
48515;DHT22;34309;47.260;2.796;2023-02-12T15:51:30;20.60;18.90
48515;DHT22;34309;47.260;2.796;2023-02-12T15:54:06;20.60;18.80
48515;DHT22;34309;47.260;2.796;2023-02-12T15:56:40;20.60;18.70
48515;DHT22;34309;47.260;2.796;2023-02-12T15:59:19;20.60;18.70
48515;DHT22;34309;47.260;2.796;2023-02-12T16:01:57;20.60;18.80
48515;DHT22;34309;47.260;2.796;2023-02-12T16:04:34;20.60;19.00
48515;DHT22;34309;47.260;2.796;2023-02-12T16:07:09;20.60;18.90
48515;DHT22;34309;47.260;2.796;2023-02-12T16:09:45;20.70;19.00
48515;DHT22;34309;47.260;2.796;2023-02-12T16:12:22;20.70;19.10
48515;DHT22;34309;47.260;2.796;2023-02-12T16:14:57;20.70;19.10
48515;DHT22;34309;47.260;2.796;2023-02-12T16:17:33;20.70;19.10
48515;DHT22;34309;47.260;2.796;2023-02-12T16:20:22;20.70;19.00
48515;DHT22;34309;47.260;2.796;2023-02-12T16:22:58;20.70;19.00
48515;DHT22;34309;47.260;2.796;2023-02-12T16:25:37;20.70;19.10
48515;DHT22;34309;47.260;2.796;2023-02-12T16:28:16;20.70;19.10
48515;DHT22;34309;47.260;2.796;2023-02-12T16:30:52;20.70;19.10
48515;DHT22;34309;47.260;2.796;2023-02-12T16:33:33;20.70;19.20
48515;DHT22;34309;47.260;2.796;2023-02-12T16:36:13;20.80;19.20
48515;DHT22;34309;47.260;2.796;2023-02-12T16:38:49;20.70;19.20
48515;DHT22;34309;47.260;2.796;2023-02-12T16:41:24;20.80;19.30
48515;DHT22;34309;47.260;2.796;2023-02-12T16:44:21;20.80;19.30
48515;DHT22;34309;47.260;2.796;2023-02-12T16:46:58;20.80;19.20
48515;DHT22;34309;47.260;2.796;2023-02-12T16:49:32;20.80;19.30
48515;DHT22;34309;47.260;2.796;2023-02-12T16:52:30;20.90;19.30